Terminal Aerodrome Forecast
Issued by NWS

Home | Current Version | Previous Version | Graphics & Text | Print | Product List | Glossary On
Versions: 1 2 3 4 5 6 7 8 9 10 11 12 13 14 15 16 17 18 19
000
FTUS43 KOAX 051750
TAFCDR
TAF
KCDR 051750Z 0518/0618 26006KT P6SM BKN100
     FM052100 36016G25KT 5SM -TSRA SCT050CB BKN100
     FM060000 02020G30KT 5SM RA VCTS BKN015 OVC050CB
     FM060900 35013KT P6SM OVC025
     FM061400 36007KT P6SM OVC050=

USA.gov is the U.S. government's official web portal to all federal, state and local government web resources and services.